Time;durP1;ratioP1;P1;durP2;ratioP2;P2;SDS_P1;SDS_P2;PMS_P1;PMS_P2;Temp;Humidity;BMP_temperature;BMP_pressure;BME280_temperature;BME280_humidity;BME280_pressure;Samples;Min_cycle;Max_cycle;Signal;HPM_P1;HPM_P2
2022/06/12 00:01:23;;;;;;;6.82;3.30;;;14.30;99.90;;;;;;5135681;27;20043;-66
2022/06/12 00:03:50;;;;;;;4.20;3.33;;;14.30;99.90;;;;;;5105720;28;20043;-66
2022/06/12 00:06:19;;;;;;;5.38;3.00;;;14.20;99.90;;;;;;5130018;27;20043;-67
2022/06/12 00:08:46;;;;;;;3.53;3.00;;;14.20;99.90;;;;;;5135665;27;20055;-66
2022/06/12 00:11:21;;;;;;;4.53;2.92;;;14.10;99.90;;;;;;5128039;27;20136;-66
2022/06/12 00:13:54;;;;;;;3.80;2.92;;;14.10;99.90;;;;;;5125637;27;20039;-67
2022/06/12 00:16:21;;;;;;;5.38;3.13;;;14.10;99.90;;;;;;5135441;27;20047;-66
2022/06/12 00:18:49;;;;;;;4.18;3.08;;;14.10;99.90;;;;;;5132694;27;20433;-66
2022/06/12 00:21:17;;;;;;;6.22;3.10;;;14.10;99.90;;;;;;5120498;27;20039;-66
2022/06/12 00:23:53;;;;;;;4.30;3.05;;;14.00;99.90;;;;;;5135441;27;20484;-66
2022/06/12 00:26:31;;;;;;;4.30;2.92;;;14.00;99.90;;;;;;5117070;27;20449;-66
2022/06/12 00:29:01;;;;;;;4.72;3.17;;;14.00;99.90;;;;;;5104541;28;20488;-66
2022/06/12 00:31:29;;;;;;;3.45;3.03;;;13.90;99.90;;;;;;5130431;27;20063;-66
2022/06/12 00:33:56;;;;;;;5.78;3.20;;;13.90;99.90;;;;;;5131068;27;20104;-66
2022/06/12 00:36:23;;;;;;;5.50;2.90;;;13.90;99.90;;;;;;5118994;27;20050;-66
2022/06/12 00:38:50;;;;;;;8.43;3.45;;;13.80;99.90;;;;;;5121463;27;20035;-66
2022/06/12 00:41:17;;;;;;;5.25;3.00;;;13.80;99.90;;;;;;5124011;27;20042;-67
2022/06/12 00:43:44;;;;;;;6.63;3.40;;;13.80;99.90;;;;;;5117447;27;20040;-66
2022/06/12 00:46:35;;;;;;;4.85;3.63;;;13.70;99.90;;;;;;5127929;27;20039;-66
2022/06/12 00:49:10;;;;;;;6.18;3.80;;;13.70;99.90;;;;;;5114258;28;20051;-66
2022/06/12 00:51:38;;;;;;;7.53;3.78;;;13.70;99.90;;;;;;5113985;28;20488;-66
2022/06/12 00:54:08;;;;;;;4.70;3.63;;;13.70;99.90;;;;;;5129943;27;20043;-66
2022/06/12 00:56:38;;;;;;;4.40;3.58;;;13.60;99.90;;;;;;5133103;27;20545;-67
2022/06/12 00:59:11;;;;;;;5.72;3.75;;;13.60;99.90;;;;;;5118581;27;20051;-66
2022/06/12 01:01:49;;;;;;;5.38;3.80;;;13.50;99.90;;;;;;5134452;27;20043;-67
2022/06/12 01:07:07;;;;;;;4.25;3.40;;;13.50;99.90;;;;;;5113554;28;19972;-67
2022/06/12 01:09:38;;;;;;;4.45;3.15;;;13.50;99.90;;;;;;5131294;27;20039;-66
2022/06/12 01:12:10;;;;;;;7.03;3.50;;;13.40;99.90;;;;;;5134091;27;20051;-66
2022/06/12 01:14:42;;;;;;;4.80;3.83;;;13.30;99.90;;;;;;5125249;27;20048;-67
2022/06/12 01:17:10;;;;;;;7.25;3.88;;;13.30;99.90;;;;;;5105768;22;20101;-70
2022/06/12 01:19:46;;;;;;;4.57;3.05;;;13.30;99.90;;;;;;5082134;28;20106;-70
2022/06/12 01:22:45;;;;;;;4.93;3.60;;;13.30;99.90;;;;;;5073044;28;20463;-70
2022/06/12 01:25:37;;;;;;;4.82;3.33;;;13.30;99.90;;;;;;5072705;28;20036;-70
2022/06/12 01:28:32;;;;;;;3.80;3.35;;;13.20;99.90;;;;;;5045466;28;20049;-70
2022/06/12 01:31:30;;;;;;;4.47;3.40;;;13.10;99.90;;;;;;5051726;28;20516;-71
2022/06/12 01:34:14;;;;;;;6.10;3.20;;;13.10;99.90;;;;;;5052902;28;20052;-71
2022/06/12 01:36:50;;;;;;;4.45;3.33;;;13.00;99.90;;;;;;5053009;28;20037;-71
2022/06/12 01:39:41;;;;;;;5.28;3.47;;;13.00;99.90;;;;;;5052701;28;20484;-71
2022/06/12 01:42:46;;;;;;;5.38;3.90;;;13.00;99.90;;;;;;5052440;28;20044;-72
2022/06/12 01:45:40;;;;;;;5.05;3.78;;;13.00;99.90;;;;;;5032879;28;20494;-72
2022/06/12 01:48:25;;;;;;;5.07;3.97;;;12.90;99.90;;;;;;5032964;28;20053;-71
2022/06/12 01:51:14;;;;;;;12.85;4.35;;;13.10;99.90;;;;;;5046459;28;20119;-71
2022/06/12 01:54:04;;;;;;;5.60;4.22;;;13.00;99.90;;;;;;5052628;28;20049;-71
2022/06/12 01:56:42;;;;;;;4.95;4.22;;;13.00;99.90;;;;;;5052809;28;20045;-71
2022/06/12 01:59:51;;;;;;;5.70;4.20;;;12.90;99.90;;;;;;5051492;28;20086;-71
2022/06/12 02:02:25;;;;;;;5.15;4.03;;;12.90;99.90;;;;;;4971558;28;20047;-72
2022/06/12 02:05:06;;;;;;;5.85;4.30;;;12.80;99.90;;;;;;5023746;28;20502;-71
2022/06/12 02:07:38;;;;;;;5.65;4.32;;;12.80;99.90;;;;;;5032330;28;20029;-71
2022/06/12 02:10:20;;;;;;;6.32;4.43;;;12.70;99.90;;;;;;5047684;28;20300;-71
2022/06/12 02:13:14;;;;;;;7.18;4.70;;;12.60;99.90;;;;;;5052491;28;20413;-71
2022/06/12 02:16:04;;;;;;;7.22;4.88;;;12.50;99.90;;;;;;5051996;28;20055;-71
2022/06/12 02:18:38;;;;;;;7.45;4.53;;;12.40;99.90;;;;;;5051737;28;20045;-71
2022/06/12 02:21:28;;;;;;;5.97;4.35;;;12.30;99.90;;;;;;5044416;28;20040;-71
2022/06/12 02:24:07;;;;;;;7.15;4.80;;;12.30;99.90;;;;;;5034289;28;20413;-71
2022/06/12 02:26:41;;;;;;;7.15;4.60;;;12.10;99.90;;;;;;5052103;28;20075;-71
2022/06/12 02:29:13;;;;;;;5.78;4.88;;;12.10;99.90;;;;;;5051077;28;20041;-71
2022/06/12 02:31:43;;;;;;;10.20;4.97;;;12.00;99.90;;;;;;5051623;28;20599;-71
2022/06/12 02:34:18;;;;;;;8.45;5.40;;;12.00;99.90;;;;;;5051094;28;20132;-71
2022/06/12 02:36:51;;;;;;;11.25;6.05;;;12.00;99.90;;;;;;5050676;28;20107;-71
2022/06/12 02:39:24;;;;;;;11.55;5.60;;;12.00;99.90;;;;;;5051610;28;20098;-71
2022/06/12 02:41:59;;;;;;;9.27;6.78;;;12.10;99.90;;;;;;5051038;28;20045;-71
2022/06/12 02:44:58;;;;;;;10.00;6.13;;;12.20;99.90;;;;;;5051595;28;20063;-70
2022/06/12 02:47:29;;;;;;;7.43;5.80;;;12.30;99.90;;;;;;5041501;28;20053;-71
2022/06/12 02:49:58;;;;;;;9.30;5.97;;;12.40;99.90;;;;;;5051042;28;20057;-72
2022/06/12 02:52:36;;;;;;;8.20;6.35;;;12.50;99.90;;;;;;5051690;28;20044;-71
2022/06/12 02:55:09;;;;;;;8.57;4.68;;;12.50;99.90;;;;;;5051701;28;20118;-71
2022/06/12 02:57:51;;;;;;;10.27;4.60;;;12.50;99.90;;;;;;5044621;28;20102;-71
2022/06/12 03:00:28;;;;;;;9.35;5.82;;;12.40;99.90;;;;;;5050845;28;20103;-71
2022/06/12 03:03:13;;;;;;;10.10;6.63;;;12.30;99.90;;;;;;5033920;28;20049;-71
2022/06/12 03:05:43;;;;;;;8.40;5.15;;;12.30;99.90;;;;;;5044078;28;20128;-71
2022/06/12 03:08:16;;;;;;;7.03;4.40;;;12.30;99.90;;;;;;5050650;28;20075;-71
2022/06/12 03:10:53;;;;;;;6.97;5.20;;;12.20;99.90;;;;;;5051015;28;20090;-71
2022/06/12 03:13:22;;;;;;;8.63;4.93;;;12.00;99.90;;;;;;5051210;28;20045;-71
2022/06/12 03:15:53;;;;;;;7.75;5.03;;;12.00;99.90;;;;;;5043637;28;20311;-71
2022/06/12 03:18:42;;;;;;;8.05;5.10;;;11.90;99.90;;;;;;5051090;28;20052;-71
2022/06/12 03:21:09;;;;;;;12.00;5.22;;;11.80;99.90;;;;;;5050755;28;20045;-71
2022/06/12 03:23:51;;;;;;;7.22;4.72;;;11.70;99.90;;;;;;5045554;28;20098;-71
2022/06/12 03:26:34;;;;;;;6.43;4.85;;;11.70;99.90;;;;;;5050801;28;20045;-71
2022/06/12 03:29:26;;;;;;;7.32;5.15;;;11.70;99.90;;;;;;5051175;28;20110;-71
2022/06/12 03:31:52;;;;;;;7.25;4.82;;;11.70;99.90;;;;;;5047909;28;20049;-71
2022/06/12 03:34:42;;;;;;;11.05;5.68;;;11.70;99.90;;;;;;5045797;28;20519;-71
2022/06/12 03:37:35;;;;;;;10.25;6.00;;;11.60;99.90;;;;;;5031066;28;20049;-71
2022/06/12 03:40:10;;;;;;;11.63;6.43;;;11.60;99.90;;;;;;5025292;28;20087;-71
2022/06/12 03:42:52;;;;;;;8.65;6.20;;;11.60;99.90;;;;;;5047854;28;20111;-71
2022/06/12 03:45:31;;;;;;;6.75;4.68;;;11.60;99.90;;;;;;5051062;28;20451;-70
2022/06/12 03:48:16;;;;;;;7.97;4.93;;;11.60;99.90;;;;;;5048271;28;20041;-71
2022/06/12 03:51:00;;;;;;;5.57;4.20;;;11.70;99.90;;;;;;5048620;28;20472;-70
2022/06/12 03:53:36;;;;;;;6.38;4.60;;;11.80;99.90;;;;;;5050933;28;20060;-71
2022/06/12 03:59:29;;;;;;;5.40;4.20;;;11.80;99.90;;;;;;5043486;28;20052;-71
2022/06/12 04:01:58;;;;;;;8.15;5.97;;;11.90;99.90;;;;;;5050451;28;20398;-71
2022/06/12 04:04:29;;;;;;;5.43;4.32;;;11.90;99.90;;;;;;5051041;28;20707;-71
2022/06/12 04:06:59;;;;;;;6.05;3.88;;;12.00;99.90;;;;;;5050277;28;20132;-71
2022/06/12 04:09:29;;;;;;;10.27;6.78;;;12.00;99.90;;;;;;5050679;28;20111;-71
2022/06/12 04:12:00;;;;;;;8.38;6.55;;;12.10;99.90;;;;;;5050659;28;20045;-71
2022/06/12 04:14:33;;;;;;;7.45;5.97;;;12.20;99.90;;;;;;5050570;28;20056;-71
2022/06/12 04:17:04;;;;;;;10.73;4.70;;;12.30;99.90;;;;;;5050551;28;20041;-70
2022/06/12 04:19:58;;;;;;;9.95;6.13;;;12.30;99.90;;;;;;5050921;28;20037;-71
2022/06/12 04:22:20;;;;;;;;;;;12.30;99.90;;;;;;5051536;28;20041;-71
2022/06/12 04:24:56;;;;;;;6.53;5.75;;;12.30;99.90;;;;;;5050871;28;19921;-70
2022/06/12 04:27:28;;;;;;;9.90;6.10;;;12.40;99.90;;;;;;5054540;28;20051;-71
2022/06/12 04:30:05;;;;;;;11.55;6.82;;;12.50;99.90;;;;;;5054073;28;20102;-71
2022/06/12 04:32:32;;;;;;;8.10;6.00;;;12.60;99.90;;;;;;5054233;28;20048;-71
2022/06/12 04:34:59;;;;;;;9.15;5.97;;;12.60;99.90;;;;;;5046147;28;20037;-71
2022/06/12 04:37:29;;;;;;;14.48;6.38;;;12.70;99.90;;;;;;5054184;28;20114;-71
2022/06/12 04:39:58;;;;;;;9.75;5.97;;;12.80;99.90;;;;;;5053655;28;20099;-71
2022/06/12 04:42:27;;;;;;;9.50;5.68;;;12.80;99.90;;;;;;5035840;28;20452;-71
2022/06/12 04:44:54;;;;;;;7.55;5.50;;;12.90;99.90;;;;;;5053930;28;20056;-71
2022/06/12 04:47:24;;;;;;;7.97;5.38;;;12.90;99.90;;;;;;5052705;28;20056;-71
2022/06/12 04:49:52;;;;;;;7.82;5.30;;;13.00;99.90;;;;;;5054067;28;20448;-70
2022/06/12 04:52:21;;;;;;;9.40;5.57;;;13.10;99.90;;;;;;5053589;28;20111;-71
2022/06/12 04:54:48;;;;;;;8.00;5.28;;;13.10;99.90;;;;;;5053955;28;20041;-71
2022/06/12 04:57:22;;;;;;;8.52;6.22;;;13.00;99.90;;;;;;5053975;28;20033;-71
2022/06/12 04:59:49;;;;;;;7.25;5.45;;;13.00;99.90;;;;;;5053173;28;20048;-71
2022/06/12 05:02:16;;;;;;;6.30;5.28;;;13.10;99.90;;;;;;5053342;28;20045;-71
2022/06/12 05:04:43;;;;;;;6.82;5.20;;;13.20;99.90;;;;;;5053867;28;20516;-71
2022/06/12 05:07:13;;;;;;;7.30;5.38;;;13.20;99.90;;;;;;5053695;28;20047;-71
2022/06/12 05:09:40;;;;;;;6.63;5.38;;;13.40;99.90;;;;;;5048010;28;20056;-71
2022/06/12 05:12:08;;;;;;;9.90;5.43;;;13.40;99.90;;;;;;5053494;28;20112;-71
2022/06/12 05:14:36;;;;;;;9.13;6.00;;;13.50;99.90;;;;;;5053499;28;20041;-71
2022/06/12 05:17:04;;;;;;;;;;;13.50;99.90;;;;;;5053795;28;20056;-70
2022/06/12 05:19:36;;;;;;;7.50;5.30;;;13.50;99.90;;;;;;5052907;28;20344;-71
2022/06/12 05:22:03;;;;;;;6.88;5.40;;;13.60;99.90;;;;;;5049773;28;20036;-71
2022/06/12 05:24:30;;;;;;;6.63;4.90;;;13.70;99.90;;;;;;5053363;28;20409;-71
2022/06/12 05:26:58;;;;;;;8.77;5.03;;;13.70;99.90;;;;;;5052918;28;20041;-71
2022/06/12 05:29:32;;;;;;;8.27;5.35;;;13.80;99.90;;;;;;5053207;28;20037;-71
2022/06/12 05:31:59;;;;;;;9.52;5.20;;;14.00;99.90;;;;;;5052643;28;20091;-71
2022/06/12 05:34:27;;;;;;;9.55;4.93;;;14.40;99.90;;;;;;5053452;28;20098;-71
2022/06/12 05:36:55;;;;;;;6.75;4.43;;;14.40;99.90;;;;;;5052589;28;20505;-71
2022/06/12 05:39:23;;;;;;;6.70;4.82;;;14.40;99.90;;;;;;5053045;28;20044;-71
2022/06/12 05:41:51;;;;;;;9.40;5.15;;;14.30;99.90;;;;;;5052808;28;20041;-71
2022/06/12 05:44:18;;;;;;;8.18;4.97;;;14.40;99.90;;;;;;5052218;28;20447;-70
2022/06/12 05:46:46;;;;;;;7.10;4.50;;;14.30;99.90;;;;;;5052816;28;20103;-71
2022/06/12 05:49:14;;;;;;;8.13;4.75;;;14.40;99.90;;;;;;5053083;28;20404;-71
2022/06/12 05:51:41;;;;;;;5.57;3.92;;;14.40;99.90;;;;;;5052630;28;20087;-71
2022/06/12 05:54:10;;;;;;;;;;;14.50;99.90;;;;;;5052733;28;20041;-71
2022/06/12 05:56:37;;;;;;;;;;;14.60;99.90;;;;;;5053094;28;19971;-71
2022/06/12 05:59:04;;;;;;;9.63;6.32;;;14.60;99.90;;;;;;5052844;28;19932;-71
2022/06/12 06:01:30;;;;;;;8.57;5.13;;;14.60;99.90;;;;;;5046817;28;20041;-71
2022/06/12 06:03:57;;;;;;;6.07;4.88;;;14.70;99.90;;;;;;5044274;28;20032;-71
2022/06/12 06:06:31;;;;;;;7.78;5.30;;;14.70;99.90;;;;;;5052623;28;20041;-71
2022/06/12 06:09:01;;;;;;;5.60;4.53;;;14.80;99.90;;;;;;5052670;28;20119;-71
2022/06/12 06:11:28;;;;;;;6.45;4.38;;;14.90;99.90;;;;;;5051424;28;20048;-71
2022/06/12 06:13:55;;;;;;;5.65;4.97;;;15.00;99.90;;;;;;5052258;28;20052;-71
2022/06/12 06:16:22;;;;;;;5.75;4.68;;;15.10;99.90;;;;;;5052330;28;20103;-71
2022/06/12 06:18:50;;;;;;;7.20;4.53;;;15.20;99.90;;;;;;5049538;28;20041;-70
2022/06/12 06:21:17;;;;;;;;;;;15.30;99.90;;;;;;5052484;28;20045;-71
2022/06/12 06:23:47;;;;;;;6.47;4.20;;;15.40;99.90;;;;;;5052164;28;20384;-71
2022/06/12 06:26:14;;;;;;;8.20;4.47;;;15.40;99.90;;;;;;5052020;28;20076;-70
2022/06/12 06:28:41;;;;;;;7.93;4.25;;;15.50;99.90;;;;;;5048696;28;20124;-71
2022/06/12 06:31:09;;;;;;;;;;;15.60;99.90;;;;;;5052184;28;20095;-70
2022/06/12 06:33:36;;;;;;;6.70;4.35;;;15.80;99.90;;;;;;5052225;28;19925;-71
2022/06/12 06:36:08;;;;;;;7.70;4.05;;;16.00;99.90;;;;;;5051623;28;20120;-71
2022/06/12 06:38:36;;;;;;;8.07;4.20;;;16.20;99.90;;;;;;5051865;28;20045;-71
2022/06/12 06:41:03;;;;;;;6.47;4.00;;;16.40;99.90;;;;;;5051478;28;20071;-71
2022/06/12 06:43:30;;;;;;;5.68;3.92;;;16.50;99.90;;;;;;5051213;28;20029;-71
2022/06/12 06:46:15;;;;;;;7.20;4.00;;;16.70;99.90;;;;;;5051231;28;20037;-71
2022/06/12 06:48:42;;;;;;;5.45;4.30;;;16.90;99.90;;;;;;5051715;28;20528;-71
2022/06/12 06:51:09;;;;;;;6.20;3.78;;;17.10;99.90;;;;;;5051776;28;20492;-71
2022/06/12 06:53:36;;;;;;;4.25;3.70;;;17.20;99.90;;;;;;5051126;28;20554;-71
2022/06/12 06:56:03;;;;;;;3.92;3.53;;;17.40;99.90;;;;;;5051639;28;20057;-71
2022/06/12 06:58:31;;;;;;;6.47;3.55;;;17.60;99.90;;;;;;5051759;28;20059;-71
2022/06/12 07:00:58;;;;;;;6.20;3.67;;;17.80;99.90;;;;;;5051225;28;20044;-71
2022/06/12 07:03:25;;;;;;;;;;;18.00;99.90;;;;;;5049822;28;20091;-71
2022/06/12 07:05:53;;;;;;;4.43;3.53;;;18.10;99.90;;;;;;5051429;28;19921;-71
2022/06/12 07:08:22;;;;;;;5.45;3.35;;;18.30;99.90;;;;;;5051575;28;20071;-71
2022/06/12 07:10:50;;;;;;;5.07;3.50;;;18.40;99.90;;;;;;5050702;28;20106;-71
2022/06/12 07:13:17;;;;;;;5.95;3.70;;;18.50;99.90;;;;;;5051549;28;20452;-71
2022/06/12 07:15:45;;;;;;;5.45;3.50;;;18.60;99.90;;;;;;5033484;28;20045;-71
2022/06/12 07:18:13;;;;;;;5.88;3.70;;;18.70;99.90;;;;;;5091294;22;20052;-65
2022/06/12 07:20:46;;;;;;;5.22;3.88;;;18.70;99.90;;;;;;5088586;28;20131;-65
2022/06/12 07:23:15;;;;;;;5.63;4.00;;;18.70;99.90;;;;;;5091487;28;20098;-65
2022/06/12 07:25:46;;;;;;;4.60;3.72;;;18.80;99.90;;;;;;5091698;28;20484;-65
2022/06/12 07:28:14;;;;;;;5.05;3.90;;;19.00;99.90;;;;;;5091464;28;20040;-65
2022/06/12 07:30:42;;;;;;;5.18;3.83;;;19.10;99.90;;;;;;5089117;28;20044;-65
2022/06/12 07:33:09;;;;;;;;;;;19.30;99.90;;;;;;5073535;28;20450;-65
2022/06/12 07:35:38;;;;;;;6.20;3.35;;;19.40;99.90;;;;;;5091493;28;19977;-65
2022/06/12 07:38:05;;;;;;;6.90;3.85;;;19.60;99.90;;;;;;5090643;28;20225;-65
2022/06/12 07:40:38;;;;;;;4.25;3.05;;;19.80;99.90;;;;;;5082616;28;20040;-65
2022/06/12 07:43:05;;;;;;;3.45;3.15;;;20.00;99.90;;;;;;5091251;28;20048;-66
2022/06/12 07:45:32;;;;;;;4.63;3.53;;;20.30;99.90;;;;;;5091247;28;20047;-65
2022/06/12 07:47:58;;;;;;;4.28;3.60;;;20.40;99.90;;;;;;5090261;28;20044;-66
2022/06/12 07:50:25;;;;;;;4.05;3.38;;;20.50;99.90;;;;;;5082522;28;20063;-65
2022/06/12 07:52:52;;;;;;;4.05;3.22;;;20.40;99.90;;;;;;5091267;28;20488;-66
2022/06/12 07:55:19;;;;;;;3.33;2.90;;;20.40;99.90;;;;;;5075602;28;20052;-66
2022/06/12 07:57:47;;;;;;;4.80;3.20;;;20.40;99.90;;;;;;5086978;28;20435;-66
2022/06/12 08:00:13;;;;;;;;;;;20.60;99.90;;;;;;5093214;28;20047;-66
2022/06/12 08:02:43;;;;;;;5.40;2.92;;;20.90;99.90;;;;;;5074927;28;19927;-65
2022/06/12 08:05:10;;;;;;;3.70;3.00;;;21.00;99.90;;;;;;5068934;28;20058;-66
2022/06/12 08:07:37;;;;;;;4.38;3.35;;;21.20;99.90;;;;;;5086040;28;20600;-65
2022/06/12 08:10:05;;;;;;;5.78;3.63;;;21.40;99.90;;;;;;5074417;28;20053;-65
2022/06/12 08:12:37;;;;;;;6.03;2.70;;;21.60;99.90;;;;;;5078504;28;20044;-66
2022/06/12 08:15:07;;;;;;;4.18;3.00;;;21.60;99.90;;;;;;5082824;28;20488;-65
2022/06/12 08:17:34;;;;;;;4.65;3.45;;;21.60;99.90;;;;;;5074456;28;20048;-66
2022/06/12 08:22:46;;;;;;;5.47;2.75;;;21.70;99.90;;;;;;5090240;28;20040;-66
2022/06/12 08:25:13;;;;;;;3.22;2.85;;;21.70;99.90;;;;;;5088003;28;20063;-66
2022/06/12 08:27:39;;;;;;;4.10;3.08;;;21.70;99.90;;;;;;5094681;28;20036;-66
2022/06/12 08:30:07;;;;;;;3.75;3.40;;;21.80;99.90;;;;;;5094319;28;20044;-66
2022/06/12 08:32:35;;;;;;;6.57;3.22;;;21.90;99.90;;;;;;5084979;28;20036;-66
2022/06/12 08:35:07;;;;;;;7.53;3.40;;;22.10;99.90;;;;;;5094394;28;20053;-66
2022/06/12 08:37:38;;;;;;;3.78;3.00;;;22.10;99.90;;;;;;5094190;28;20105;-67
2022/06/12 08:40:13;;;;;;;4.10;2.90;;;22.10;99.90;;;;;;5092838;28;20428;-66
2022/06/12 08:42:49;;;;;;;3.88;3.00;;;22.20;99.90;;;;;;5085941;28;20040;-66
2022/06/12 08:45:22;;;;;;;5.15;3.60;;;22.40;99.90;;;;;;5094241;28;20489;-66
2022/06/12 08:48:01;;;;;;;5.38;3.72;;;22.30;99.90;;;;;;5094222;28;20044;-66
2022/06/12 08:51:01;;;;;;;4.25;3.08;;;22.50;99.90;;;;;;5084661;28;20140;-66
2022/06/12 08:53:41;;;;;;;4.15;3.35;;;22.60;99.90;;;;;;5073957;28;20110;-66
2022/06/12 08:56:21;;;;;;;4.18;3.30;;;22.60;99.90;;;;;;5073702;28;20055;-66
2022/06/12 08:59:22;;;;;;;4.70;3.33;;;22.60;99.90;;;;;;5083871;28;20048;-67
2022/06/12 09:01:48;;;;;;;5.32;3.22;;;22.70;99.90;;;;;;5061382;28;20060;-66
2022/06/12 09:04:19;;;;;;;5.95;3.28;;;22.80;99.90;;;;;;5093945;28;20052;-67
2022/06/12 09:06:51;;;;;;;4.95;3.20;;;22.80;99.90;;;;;;5091651;28;20040;-66
2022/06/12 09:09:22;;;;;;;7.38;3.08;;;22.90;99.90;;;;;;5085154;28;20040;-66
2022/06/12 09:12:04;;;;;;;4.68;3.00;;;23.00;99.90;;;;;;5093421;28;20044;-67
2022/06/12 09:14:40;;;;;;;3.88;3.20;;;23.10;99.90;;;;;;5092786;28;20044;-66
2022/06/12 09:17:29;;;;;;;4.13;2.97;;;23.10;99.90;;;;;;5078248;28;20412;-66
2022/06/12 09:20:14;;;;;;;5.50;2.85;;;23.20;99.90;;;;;;5093390;28;20539;-66
2022/06/12 09:23:08;;;;;;;5.03;3.13;;;23.30;99.90;;;;;;5093868;28;20036;-67
2022/06/12 09:26:09;;;;;;;3.85;2.90;;;23.50;99.90;;;;;;5081603;28;20116;-67
2022/06/12 09:29:08;;;;;;;6.00;2.80;;;23.70;99.90;;;;;;5085305;28;20048;-66
2022/06/12 09:31:50;;;;;;;5.38;3.33;;;23.80;99.90;;;;;;5093260;28;20043;-66
2022/06/12 09:34:38;;;;;;;3.50;3.20;;;23.80;99.90;;;;;;5092506;28;20560;-67
2022/06/12 09:40:35;;;;;;;2.60;2.40;;;24.00;99.90;;;;;;5089751;28;20039;-68
2022/06/12 09:43:20;;;;;;;2.75;2.45;;;24.30;99.90;;;;;;5081680;28;20094;-67
2022/06/12 09:46:03;;;;;;;2.72;2.30;;;24.50;99.90;;;;;;5080754;28;20040;-66
2022/06/12 09:48:39;;;;;;;2.58;2.38;;;24.60;99.90;;;;;;5077034;28;20046;-67
2022/06/12 09:51:27;;;;;;;3.22;2.60;;;24.80;99.90;;;;;;5081261;28;20040;-66
2022/06/12 09:54:21;;;;;;;4.40;3.10;;;24.70;99.90;;;;;;5081182;28;20037;-66
2022/06/12 09:57:17;;;;;;;3.63;2.67;;;24.60;99.90;;;;;;5072016;28;20052;-64
2022/06/12 10:00:00;;;;;;;2.85;2.55;;;24.60;99.90;;;;;;5090256;28;20048;-67
2022/06/12 10:02:48;;;;;;;3.25;2.88;;;24.70;99.90;;;;;;5091099;28;20087;-67
2022/06/12 10:05:49;;;;;;;3.72;3.10;;;24.60;99.80;;;;;;5080245;28;20078;-67
2022/06/12 10:08:31;;;;;;;3.28;2.40;;;24.70;99.90;;;;;;5081126;28;20113;-65
2022/06/12 10:11:02;;;;;;;5.88;2.80;;;25.00;99.90;;;;;;5088605;28;20049;-66
2022/06/12 10:13:39;;;;;;;2.75;2.42;;;25.00;99.90;;;;;;5072071;28;20098;-65
2022/06/12 10:16:14;;;;;;;4.82;3.00;;;25.00;99.90;;;;;;5083847;28;20045;-66
2022/06/12 10:18:52;;;;;;;4.35;2.67;;;25.30;99.90;;;;;;5089229;28;20062;-66
2022/06/12 10:21:23;;;;;;;3.88;2.42;;;25.40;99.90;;;;;;5090832;28;20040;-65
2022/06/12 10:23:51;;;;;;;3.08;2.20;;;25.50;99.90;;;;;;5089577;28;20089;-61
2022/06/12 10:26:26;;;;;;;2.92;2.45;;;25.70;99.60;;;;;;5086522;28;20036;-61
2022/06/12 10:29:06;;;;;;;3.10;2.10;;;25.60;96.30;;;;;;5092391;28;20043;-65
2022/06/12 10:31:44;;;;;;;4.88;2.35;;;25.50;96.90;;;;;;5090790;28;20094;-65
2022/06/12 10:34:16;;;;;;;;;;;25.60;96.50;;;;;;5084451;28;20074;-66
2022/06/12 10:36:44;;;;;;;3.40;2.50;;;25.90;96.60;;;;;;5092055;28;19927;-65
2022/06/12 10:39:13;;;;;;;2.65;2.00;;;25.90;95.70;;;;;;5092320;28;20044;-66
2022/06/12 10:42:05;;;;;;;3.58;2.03;;;26.00;94.70;;;;;;5089282;28;20040;-65
2022/06/12 10:44:41;;;;;;;3.45;1.95;;;26.10;96.20;;;;;;5082729;28;20372;-64
2022/06/12 10:47:22;;;;;;;2.45;1.77;;;26.20;94.10;;;;;;5085124;28;20380;-64
2022/06/12 10:50:13;;;;;;;2.10;1.90;;;26.40;93.00;;;;;;5090910;28;20098;-64
2022/06/12 10:53:07;;;;;;;2.30;1.77;;;26.60;95.20;;;;;;5083462;28;20036;-60
2022/06/12 10:55:53;;;;;;;2.00;1.90;;;26.70;95.60;;;;;;5091840;28;20048;-62
2022/06/12 10:58:30;;;;;;;1.92;1.50;;;26.80;93.90;;;;;;5090491;28;20381;-62
2022/06/12 11:01:03;;;;;;;1.65;1.35;;;26.80;94.00;;;;;;5089875;28;20044;-62
2022/06/12 11:03:47;;;;;;;1.92;1.40;;;27.00;92.00;;;;;;5091756;28;20082;-62
2022/06/12 11:06:40;;;;;;;2.10;1.70;;;27.10;93.60;;;;;;5077240;28;20489;-61
2022/06/12 11:09:40;;;;;;;1.75;1.33;;;27.10;90.10;;;;;;5086568;28;20409;-63
2022/06/12 11:12:33;;;;;;;1.45;1.17;;;27.00;84.70;;;;;;5074612;28;20056;-61
2022/06/12 11:15:25;;;;;;;3.05;1.48;;;27.10;85.70;;;;;;5079413;28;20048;-61
2022/06/12 11:18:08;;;;;;;1.65;1.45;;;27.20;81.70;;;;;;5083339;28;20443;-62
2022/06/12 11:21:03;;;;;;;1.85;1.45;;;26.90;84.70;;;;;;5088281;28;20121;-61
2022/06/12 11:23:50;;;;;;;1.50;1.40;;;27.10;81.40;;;;;;5091585;28;20051;-61
2022/06/12 11:26:19;;;;;;;1.52;1.35;;;27.10;80.00;;;;;;5085412;28;20044;-61
2022/06/12 11:29:07;;;;;;;1.83;1.63;;;27.20;82.90;;;;;;5087456;28;20056;-62
2022/06/12 11:31:43;;;;;;;1.55;1.30;;;27.30;84.70;;;;;;5070954;28;20090;-62
2022/06/12 11:34:38;;;;;;;2.72;1.40;;;27.50;84.90;;;;;;5071081;28;20090;-61
2022/06/12 11:37:28;;;;;;;1.95;1.30;;;27.70;83.80;;;;;;5080612;28;20048;-62
2022/06/12 11:40:14;;;;;;;1.63;1.50;;;27.90;75.10;;;;;;5090577;28;20401;-62
2022/06/12 11:43:08;;;;;;;1.55;1.38;;;28.00;80.40;;;;;;5091261;28;20492;-63
2022/06/12 11:46:27;;;;;;;3.50;1.30;;;28.10;78.80;;;;;;5089910;28;20125;-62
2022/06/12 11:49:19;;;;;;;1.40;1.00;;;27.90;78.40;;;;;;5084572;28;20397;-63
2022/06/12 11:51:57;;;;;;;1.30;1.20;;;27.70;78.60;;;;;;5070630;28;20048;-67
2022/06/12 11:54:42;;;;;;;1.23;1.15;;;27.80;73.70;;;;;;5082932;28;20048;-62
2022/06/12 11:57:24;;;;;;;1.80;1.10;;;27.80;77.40;;;;;;5085075;28;20522;-65
2022/06/12 12:00:12;;;;;;;3.33;1.33;;;28.00;75.90;;;;;;5091055;28;20047;-66
2022/06/12 12:03:04;;;;;;;1.17;1.10;;;27.90;73.60;;;;;;5089290;28;20078;-66
2022/06/12 12:05:31;;;;;;;2.08;1.05;;;28.00;69.70;;;;;;5082724;28;20488;-66
2022/06/12 12:08:28;;;;;;;1.88;1.30;;;28.20;71.10;;;;;;5070683;28;20049;-62
2022/06/12 12:11:09;;;;;;;1.50;1.30;;;28.10;71.40;;;;;;5089750;28;20051;-63
2022/06/12 12:13:43;;;;;;;1.23;1.13;;;28.20;73.50;;;;;;5081136;28;20057;-61
2022/06/12 12:16:26;;;;;;;1.17;1.10;;;28.20;70.30;;;;;;5084250;28;20428;-60
2022/06/12 12:19:02;;;;;;;1.20;0.95;;;28.10;71.50;;;;;;5087679;28;20040;-60
2022/06/12 12:21:44;;;;;;;1.30;1.20;;;28.10;74.20;;;;;;5088963;28;20032;-63
2022/06/12 12:24:18;;;;;;;1.40;1.30;;;28.30;72.20;;;;;;5074969;28;20048;-63
2022/06/12 12:26:45;;;;;;;1.30;1.20;;;28.60;74.70;;;;;;5088878;28;20040;-64
2022/06/12 12:29:17;;;;;;;1.15;1.15;;;28.80;72.10;;;;;;5090739;28;20165;-65
2022/06/12 12:31:46;;;;;;;1.30;1.20;;;28.80;71.40;;;;;;5086987;28;20413;-65
2022/06/12 12:34:14;;;;;;;1.95;1.30;;;28.90;76.00;;;;;;5079777;28;20045;-63
2022/06/12 12:42:28;;;;;;;1.40;1.15;;;28.90;74.60;;;;;;5086283;28;20420;-62
2022/06/12 12:44:56;;;;;;;5.63;1.70;;;29.00;70.20;;;;;;5093904;28;20043;-67
2022/06/12 12:47:28;;;;;;;1.40;1.30;;;29.00;69.90;;;;;;5094078;28;20044;-68
2022/06/12 12:50:08;;;;;;;2.55;1.10;;;28.90;69.10;;;;;;5088168;28;20043;-61
2022/06/12 12:52:40;;;;;;;1.23;1.20;;;28.70;68.30;;;;;;5091258;28;20040;-61
2022/06/12 12:55:21;;;;;;;1.27;1.17;;;28.90;69.60;;;;;;5094055;28;20546;-62
2022/06/12 12:57:48;;;;;;;2.97;1.40;;;28.90;68.60;;;;;;5075372;28;20051;-62
2022/06/12 13:00:17;;;;;;;2.03;1.35;;;28.80;74.10;;;;;;5079282;28;20162;-62
2022/06/12 13:03:21;;;;;;;2.35;1.50;;;28.90;73.10;;;;;;5073666;28;20114;-62
2022/06/12 13:05:48;;;;;;;4.60;1.98;;;28.70;73.30;;;;;;5081573;28;20077;-67
2022/06/12 13:08:49;;;;;;;3.45;2.95;;;28.60;73.50;;;;;;5073741;28;20057;-66
2022/06/12 13:11:31;;;;;;;1.73;1.60;;;28.60;72.90;;;;;;5092160;28;20039;-66
2022/06/12 13:14:10;;;;;;;2.65;1.33;;;28.70;69.70;;;;;;5089147;28;20040;-67
2022/06/12 13:19:44;;;;;;;3.67;1.30;;;28.50;71.50;;;;;;5044708;28;20049;-63
2022/06/12 13:22:22;;;;;;;1.67;1.25;;;28.60;73.30;;;;;;5041588;28;20041;-65
2022/06/12 13:25:09;;;;;;;3.13;1.30;;;28.50;76.00;;;;;;5047992;28;20041;-63
2022/06/12 13:27:47;;;;;;;1.38;1.27;;;28.20;75.10;;;;;;5045068;28;20517;-63
2022/06/12 13:30:28;;;;;;;4.53;1.45;;;28.30;73.50;;;;;;5053098;28;20124;-63
2022/06/12 13:33:15;;;;;;;3.67;1.60;;;28.40;78.70;;;;;;5052740;28;20037;-63
2022/06/12 13:35:48;;;;;;;1.83;1.33;;;28.40;70.30;;;;;;5045103;28;20045;-65
2022/06/12 13:38:26;;;;;;;1.63;1.40;;;28.40;72.90;;;;;;5053284;28;20444;-64
2022/06/12 13:41:01;;;;;;;1.65;1.38;;;28.50;74.30;;;;;;5052896;28;20052;-63
2022/06/12 13:43:34;;;;;;;6.75;1.50;;;28.60;72.90;;;;;;5052658;28;20048;-64
2022/06/12 13:46:24;;;;;;;1.77;1.27;;;28.60;72.10;;;;;;5047409;28;20049;-65
2022/06/12 13:48:52;;;;;;;1.35;1.20;;;28.50;69.70;;;;;;5053158;28;20413;-65
2022/06/12 13:51:34;;;;;;;3.15;1.58;;;28.50;69.20;;;;;;5046705;28;20041;-65
2022/06/12 13:54:21;;;;;;;2.75;1.50;;;28.50;71.90;;;;;;5045211;28;20052;-65